createdAt,value
2022-10-31T00:00:38.142Z,8.50
2022-10-31T00:03:10.631Z,8.50
2022-10-31T00:05:40.525Z,8.50
2022-10-31T00:08:10.345Z,8.60
2022-10-31T00:10:41.881Z,8.60
2022-10-31T00:13:12.498Z,8.70
2022-10-31T00:15:43.242Z,8.60
2022-10-31T00:18:15.684Z,8.60
2022-10-31T00:20:45.559Z,8.50
2022-10-31T00:23:15.725Z,8.50
2022-10-31T00:25:45.563Z,8.60
2022-10-31T00:28:15.760Z,8.70
2022-10-31T00:30:45.678Z,8.80
2022-10-31T00:33:18.204Z,8.90
2022-10-31T00:35:53.768Z,8.80
2022-10-31T00:38:23.764Z,8.70
2022-10-31T00:40:53.665Z,8.70
2022-10-31T00:43:23.593Z,8.60
2022-10-31T00:45:53.598Z,8.60
2022-10-31T00:48:26.174Z,8.70
2022-10-31T00:50:56.675Z,8.70
2022-10-31T00:53:26.700Z,8.80
2022-10-31T00:55:56.616Z,8.60
2022-10-31T00:58:26.658Z,8.60
2022-10-31T01:00:58.644Z,8.50
2022-10-31T01:03:32.961Z,8.50
2022-10-31T01:06:04.080Z,8.50
2022-10-31T01:08:36.086Z,8.30
2022-10-31T01:11:09.700Z,8.30
2022-10-31T01:13:39.645Z,8.30
2022-10-31T01:16:12.253Z,8.30
2022-10-31T01:18:44.883Z,8.30
2022-10-31T01:21:16.361Z,8.30
2022-10-31T01:23:46.690Z,8.40
2022-10-31T01:26:19.252Z,8.40
2022-10-31T01:28:50.676Z,8.30
2022-10-31T01:31:21.908Z,8.30
2022-10-31T01:33:54.802Z,8.30
2022-10-31T01:36:26.847Z,8.30
2022-10-31T01:38:59.184Z,8.30
2022-10-31T01:41:31.210Z,8.30
2022-10-31T01:44:03.315Z,8.40
2022-10-31T01:46:36.229Z,8.40
2022-10-31T01:49:13.684Z,8.40
2022-10-31T01:51:49.088Z,8.30
2022-10-31T01:54:20.688Z,8.30
2022-10-31T01:56:54.091Z,8.30
2022-10-31T01:59:25.207Z,8.30
2022-10-31T02:01:55.820Z,8.30
2022-10-31T02:04:29.144Z,8.40
2022-10-31T02:07:02.305Z,8.50
2022-10-31T02:09:33.631Z,8.50
2022-10-31T02:12:06.081Z,8.50
2022-10-31T02:14:36.288Z,8.40
2022-10-31T02:17:07.078Z,8.40
2022-10-31T02:19:54.555Z,8.50
2022-10-31T02:22:30.652Z,8.50
2022-10-31T02:25:13.148Z,8.30
2022-10-31T02:28:10.083Z,8.20
2022-10-31T02:30:46.313Z,8.20
2022-10-31T02:33:26.081Z,8.20
2022-10-31T02:36:02.966Z,8.10
2022-10-31T02:38:47.291Z,8.20
2022-10-31T02:41:28.629Z,8.20
2022-10-31T02:44:10.592Z,8.20
2022-10-31T02:46:46.369Z,8.20
2022-10-31T02:49:26.132Z,8.30
2022-10-31T02:51:56.030Z,8.30
2022-10-31T02:54:28.044Z,8.40
2022-10-31T02:57:02.329Z,8.40
2022-10-31T02:59:33.976Z,8.50
2022-10-31T03:02:34.704Z,8.40
2022-10-31T03:05:27.965Z,8.40
2022-10-31T03:08:03.445Z,8.50
2022-10-31T03:10:39.999Z,8.50
2022-10-31T03:13:13.740Z,8.40
2022-10-31T03:15:47.464Z,8.50
2022-10-31T03:18:21.360Z,8.40
2022-10-31T03:20:58.386Z,8.50
2022-10-31T03:23:29.417Z,8.50
2022-10-31T03:25:59.382Z,8.50
2022-10-31T03:28:33.391Z,8.50
2022-10-31T03:31:06.512Z,8.40
2022-10-31T03:33:41.273Z,8.50
2022-10-31T03:36:15.317Z,8.30
2022-10-31T03:38:48.520Z,8.30
2022-10-31T03:41:23.332Z,8.30
2022-10-31T03:43:59.467Z,8.30
2022-10-31T03:46:29.776Z,8.30
2022-10-31T03:49:01.917Z,8.20
2022-10-31T03:51:38.860Z,8.20
2022-10-31T03:54:13.316Z,8.20
2022-10-31T03:56:47.477Z,8.20
2022-10-31T03:59:20.541Z,8.20
2022-10-31T04:01:54.474Z,8.20
2022-10-31T04:04:24.659Z,8.20
2022-10-31T04:06:58.266Z,8.20
2022-10-31T04:09:29.906Z,8.20
2022-10-31T04:12:01.080Z,8.20
2022-10-31T04:14:51.921Z,8.20
2022-10-31T04:17:23.112Z,8.10
2022-10-31T04:19:53.404Z,7.90
2022-10-31T04:22:25.885Z,7.80
2022-10-31T04:24:56.013Z,7.80
2022-10-31T04:27:25.930Z,7.80
2022-10-31T04:29:55.929Z,7.80
2022-10-31T04:32:25.801Z,7.80
2022-10-31T04:34:56.593Z,7.80
2022-10-31T04:37:29.060Z,7.90
2022-10-31T04:39:59.176Z,7.90
2022-10-31T04:42:47.612Z,7.90
2022-10-31T04:45:21.057Z,7.90
2022-10-31T04:47:54.340Z,7.90
2022-10-31T04:50:24.212Z,7.90
2022-10-31T04:52:57.037Z,7.80
2022-10-31T04:55:30.935Z,7.70
2022-10-31T04:58:21.295Z,7.60
2022-10-31T05:00:55.695Z,7.50
2022-10-31T05:03:25.668Z,7.50
2022-10-31T05:05:55.658Z,7.50
2022-10-31T05:08:28.170Z,7.40
2022-10-31T05:11:03.238Z,7.40
2022-10-31T05:13:34.597Z,7.40
2022-10-31T05:16:33.478Z,7.40
2022-10-31T05:19:23.282Z,7.50
2022-10-31T05:22:24.706Z,7.40
2022-10-31T05:24:57.228Z,7.40
2022-10-31T05:27:27.112Z,7.40
2022-10-31T05:29:56.989Z,7.30
2022-10-31T05:32:26.918Z,7.30
2022-10-31T05:35:18.473Z,7.30
2022-10-31T05:38:13.600Z,7.30
2022-10-31T05:40:46.322Z,7.30
2022-10-31T05:43:16.383Z,7.30
2022-10-31T05:45:46.280Z,7.30
2022-10-31T05:48:34.316Z,7.40
2022-10-31T05:51:30.313Z,7.40
2022-10-31T05:54:00.312Z,7.30
2022-10-31T05:56:33.477Z,7.30
2022-10-31T05:59:03.787Z,7.20
2022-10-31T06:01:33.779Z,7.20
2022-10-31T06:04:08.657Z,7.20
2022-10-31T06:06:40.061Z,7.20
2022-10-31T06:09:10.699Z,7.20
2022-10-31T06:11:43.630Z,7.10
2022-10-31T06:14:36.294Z,7.10
2022-10-31T06:17:07.017Z,7.20
2022-10-31T06:20:10.547Z,7.30
2022-10-31T06:22:52.152Z,7.30
2022-10-31T06:25:22.091Z,7.30
2022-10-31T06:27:55.718Z,7.40
2022-10-31T06:30:29.788Z,7.50
2022-10-31T06:33:05.753Z,7.60
2022-10-31T06:35:38.564Z,7.70
2022-10-31T06:38:08.500Z,7.80
2022-10-31T06:40:42.722Z,8.00
2022-10-31T06:43:27.352Z,8.10
2022-10-31T06:46:16.895Z,8.20
2022-10-31T06:48:57.447Z,8.40
2022-10-31T06:51:39.618Z,8.50
2022-10-31T06:54:09.625Z,8.60
2022-10-31T06:56:40.414Z,8.70
2022-10-31T06:59:12.999Z,8.80
2022-10-31T07:02:03.023Z,8.90
2022-10-31T07:04:33.028Z,9.00
2022-10-31T07:07:02.876Z,9.10
2022-10-31T07:09:36.289Z,9.20
2022-10-31T07:12:08.112Z,9.30
2022-10-31T07:14:44.256Z,9.50
2022-10-31T07:17:14.217Z,9.60
2022-10-31T07:19:47.052Z,9.70
2022-10-31T07:22:19.717Z,9.80
2022-10-31T07:24:49.644Z,10.00
2022-10-31T07:27:42.815Z,10.10
2022-10-31T07:30:19.385Z,10.20
2022-10-31T07:32:51.012Z,10.30
2022-10-31T07:35:23.978Z,10.40
2022-10-31T07:38:00.937Z,10.50
2022-10-31T07:40:31.019Z,10.50
2022-10-31T07:43:01.872Z,10.70
2022-10-31T07:46:03.903Z,10.80
2022-10-31T07:48:52.507Z,11.10
2022-10-31T07:51:46.358Z,11.20
2022-10-31T07:54:39.057Z,11.30
2022-10-31T07:57:12.273Z,11.40
2022-10-31T07:59:42.521Z,11.40
2022-10-31T08:02:17.464Z,11.50
2022-10-31T08:05:05.916Z,11.60
2022-10-31T08:07:56.267Z,11.70
2022-10-31T08:10:26.489Z,11.90
2022-10-31T08:13:02.057Z,12.00
2022-10-31T08:15:33.060Z,12.20
2022-10-31T08:18:05.802Z,12.30
2022-10-31T08:20:36.560Z,12.40
2022-10-31T08:23:07.733Z,12.60
2022-10-31T08:25:39.352Z,12.80
2022-10-31T08:28:10.699Z,12.90
2022-10-31T08:30:41.709Z,13.10
2022-10-31T08:33:32.672Z,13.30
2022-10-31T08:36:21.088Z,13.40
2022-10-31T08:39:01.576Z,13.50
2022-10-31T08:41:32.930Z,13.60
2022-10-31T08:44:04.031Z,13.70
2022-10-31T08:46:35.554Z,13.80
2022-10-31T08:49:08.413Z,14.00
2022-10-31T08:51:38.392Z,14.20
2022-10-31T08:54:08.519Z,14.30
2022-10-31T08:57:13.228Z,14.30
2022-10-31T08:59:46.897Z,14.40
2022-10-31T09:02:16.802Z,14.60
2022-10-31T09:04:49.411Z,14.80
2022-10-31T09:07:21.692Z,14.90
2022-10-31T09:09:52.127Z,15.00
2022-10-31T09:12:23.050Z,15.10
2022-10-31T09:15:22.425Z,15.20
2022-10-31T09:18:17.475Z,15.30
2022-10-31T09:20:56.048Z,15.40
2022-10-31T09:23:26.877Z,15.50
2022-10-31T09:25:57.607Z,15.60
2022-10-31T09:28:40.604Z,15.70
2022-10-31T09:31:14.094Z,15.80
2022-10-31T09:33:58.095Z,16.00
2022-10-31T09:36:50.763Z,16.10
2022-10-31T09:39:27.050Z,16.30
2022-10-31T09:42:27.805Z,16.40
2022-10-31T09:45:05.192Z,16.40
2022-10-31T09:47:49.661Z,16.60
2022-10-31T09:50:40.831Z,16.80
2022-10-31T09:53:38.445Z,16.90
2022-10-31T09:56:10.932Z,17.00
2022-10-31T09:58:47.477Z,17.00
2022-10-31T10:01:34.176Z,17.20
2022-10-31T10:04:09.064Z,17.20
2022-10-31T10:07:02.773Z,17.30
2022-10-31T10:09:55.233Z,17.40
2022-10-31T10:12:54.726Z,17.60
2022-10-31T10:15:35.170Z,17.80
2022-10-31T10:18:12.396Z,17.90
2022-10-31T10:20:48.079Z,18.00
2022-10-31T10:23:39.319Z,18.10
2022-10-31T10:26:19.632Z,18.20
2022-10-31T10:28:52.228Z,18.30
2022-10-31T10:31:25.737Z,18.50
2022-10-31T10:34:05.620Z,18.60
2022-10-31T10:36:40.624Z,18.70
2022-10-31T10:39:18.371Z,18.80
2022-10-31T10:42:04.495Z,18.90
2022-10-31T10:44:46.749Z,19.00
2022-10-31T10:47:29.057Z,19.10
2022-10-31T10:49:58.925Z,19.30
2022-10-31T10:52:50.162Z,19.30
2022-10-31T10:55:27.172Z,19.40
2022-10-31T10:58:02.955Z,19.50
2022-10-31T11:00:35.618Z,19.70
2022-10-31T11:03:06.651Z,20.00
2022-10-31T11:05:40.277Z,20.00
2022-10-31T11:08:10.628Z,20.00
2022-10-31T11:10:40.686Z,20.10
2022-10-31T11:13:24.843Z,20.20
2022-10-31T11:15:59.734Z,20.30
2022-10-31T11:18:31.514Z,20.40
2022-10-31T11:21:03.835Z,20.40
2022-10-31T11:23:34.368Z,20.30
2022-10-31T11:26:06.022Z,20.40
2022-10-31T11:28:38.652Z,20.40
2022-10-31T11:31:11.253Z,20.50
2022-10-31T11:33:44.264Z,20.60
2022-10-31T11:36:21.045Z,20.60
2022-10-31T11:38:51.289Z,20.60
2022-10-31T11:41:22.925Z,20.70
2022-10-31T11:57:04.090Z,21.10
2022-10-31T11:59:35.488Z,21.10
2022-10-31T12:02:05.723Z,21.30
2022-10-31T12:04:41.496Z,21.30
2022-10-31T12:07:11.538Z,21.30
2022-10-31T12:09:42.115Z,21.50
2022-10-31T12:12:41.480Z,21.50
2022-10-31T12:15:24.940Z,21.70
2022-10-31T12:18:00.821Z,21.80
2022-10-31T12:20:39.264Z,22.00
2022-10-31T12:23:16.295Z,22.10
2022-10-31T12:25:52.274Z,22.30
2022-10-31T12:28:45.389Z,22.30
2022-10-31T12:31:27.729Z,22.40
2022-10-31T12:34:04.627Z,22.40
2022-10-31T12:36:43.061Z,22.50
2022-10-31T12:39:27.654Z,22.50
2022-10-31T12:42:04.158Z,22.60
2022-10-31T12:44:48.007Z,22.80
2022-10-31T12:47:51.473Z,22.80
2022-10-31T12:50:30.670Z,22.70
2022-10-31T12:53:09.255Z,22.80
2022-10-31T12:55:52.558Z,23.00
2022-10-31T12:58:26.504Z,23.10
2022-10-31T13:01:08.032Z,23.20
2022-10-31T13:03:43.085Z,23.20
2022-10-31T13:06:19.020Z,23.10
2022-10-31T13:08:51.765Z,23.10
2022-10-31T13:11:26.251Z,23.00
2022-10-31T13:14:03.010Z,22.90
2022-10-31T13:16:39.186Z,22.90
2022-10-31T13:19:14.706Z,23.00
2022-10-31T13:21:49.713Z,23.00
2022-10-31T13:24:24.087Z,22.90
2022-10-31T13:26:56.492Z,22.90
2022-10-31T13:29:31.814Z,22.90
2022-10-31T13:32:08.409Z,22.80
2022-10-31T13:34:41.823Z,22.90
2022-10-31T13:37:20.181Z,22.80
2022-10-31T13:40:02.512Z,22.80
2022-10-31T13:42:44.724Z,22.70
2022-10-31T13:45:20.720Z,22.60
2022-10-31T13:48:03.516Z,22.60
2022-10-31T13:50:35.250Z,22.50
2022-10-31T13:53:15.647Z,22.40
2022-10-31T13:55:46.867Z,22.30
2022-10-31T13:58:28.219Z,22.20
2022-10-31T14:01:16.075Z,22.00
2022-10-31T14:04:07.722Z,21.80
2022-10-31T14:06:42.802Z,21.60
2022-10-31T14:09:23.807Z,21.30
2022-10-31T14:11:54.568Z,21.10
2022-10-31T14:14:25.179Z,21.00
2022-10-31T14:16:59.179Z,20.70
2022-10-31T14:19:31.691Z,20.50
2022-10-31T14:22:01.728Z,20.30
2022-10-31T14:24:37.798Z,20.10
2022-10-31T14:27:38.950Z,19.90
2022-10-31T14:30:23.544Z,19.70
2022-10-31T14:32:55.848Z,19.60
2022-10-31T14:35:31.802Z,19.50
2022-10-31T14:38:27.895Z,19.30
2022-10-31T14:41:20.155Z,19.10
2022-10-31T14:44:21.238Z,19.00
2022-10-31T14:46:56.670Z,18.80
2022-10-31T14:49:39.148Z,18.70
2022-10-31T14:52:16.629Z,18.50
2022-10-31T14:54:49.902Z,18.40
2022-10-31T14:57:23.522Z,18.10
2022-10-31T14:59:57.937Z,17.90
2022-10-31T15:02:35.856Z,17.60
2022-10-31T15:05:07.936Z,17.50
2022-10-31T15:07:41.405Z,17.30
2022-10-31T15:10:26.936Z,17.10
2022-10-31T15:12:57.675Z,16.80
2022-10-31T15:15:29.265Z,16.70
2022-10-31T15:18:02.839Z,16.60
2022-10-31T15:20:34.675Z,16.30
2022-10-31T15:23:07.128Z,16.10
2022-10-31T15:25:38.758Z,15.90
2022-10-31T15:28:17.679Z,15.50
2022-10-31T15:30:54.633Z,15.10
2022-10-31T15:33:33.675Z,14.80
2022-10-31T15:36:08.247Z,14.70
2022-10-31T15:38:40.765Z,14.50
2022-10-31T15:41:25.894Z,14.40
2022-10-31T15:43:55.858Z,14.30
2022-10-31T15:46:28.315Z,14.10
2022-10-31T15:48:58.721Z,13.90
2022-10-31T15:51:36.323Z,13.80
2022-10-31T15:54:08.987Z,13.60
2022-10-31T15:56:39.200Z,13.50
2022-10-31T15:59:09.052Z,13.50
2022-10-31T16:01:39.014Z,13.40
2022-10-31T16:04:25.567Z,13.40
2022-10-31T16:07:04.435Z,13.30
2022-10-31T16:09:37.116Z,13.30
2022-10-31T16:12:07.443Z,13.20
2022-10-31T16:14:42.544Z,13.10
2022-10-31T16:17:15.789Z,13.00
2022-10-31T16:19:53.085Z,12.90
2022-10-31T16:22:29.308Z,12.80
2022-10-31T16:25:07.261Z,12.70
2022-10-31T16:27:38.939Z,12.60
2022-10-31T16:30:33.634Z,12.60
2022-10-31T16:33:04.988Z,12.40
2022-10-31T16:35:37.245Z,12.20
2022-10-31T16:38:07.663Z,12.20
2022-10-31T16:40:42.333Z,12.30
2022-10-31T16:43:15.214Z,12.20
2022-10-31T16:45:47.801Z,12.20
2022-10-31T16:48:20.496Z,12.10
2022-10-31T16:50:50.764Z,12.10
2022-10-31T16:53:20.987Z,12.00
2022-10-31T16:55:58.022Z,11.80
2022-10-31T16:58:33.108Z,11.70
2022-10-31T17:01:03.331Z,11.60
2022-10-31T17:03:33.291Z,11.50
2022-10-31T17:06:03.269Z,11.40
2022-10-31T17:08:34.196Z,11.40
2022-10-31T17:11:07.370Z,11.30
2022-10-31T17:13:37.794Z,11.30
2022-10-31T17:16:08.757Z,11.20
2022-10-31T17:18:38.610Z,11.20
2022-10-31T17:21:09.040Z,11.10
2022-10-31T17:23:38.913Z,11.10
2022-10-31T17:26:11.563Z,11.10
2022-10-31T17:28:41.418Z,11.00
2022-10-31T17:31:20.217Z,11.00
2022-10-31T17:33:50.138Z,11.00
2022-10-31T17:36:20.034Z,10.90
2022-10-31T17:38:49.893Z,10.90
2022-10-31T17:41:22.311Z,10.90
2022-10-31T17:43:52.179Z,10.80
2022-10-31T17:46:22.028Z,10.70
2022-10-31T17:48:51.911Z,10.50
2022-10-31T17:51:21.741Z,10.50
2022-10-31T17:53:51.609Z,10.40
2022-10-31T17:56:24.144Z,10.40
2022-10-31T17:58:54.049Z,10.40
2022-10-31T18:01:24.535Z,10.40
2022-10-31T18:03:54.540Z,10.40
2022-10-31T18:06:24.524Z,10.40
2022-10-31T18:08:56.232Z,10.40
2022-10-31T18:11:28.657Z,10.40
2022-10-31T18:14:00.977Z,10.40
2022-10-31T18:16:30.897Z,10.40
2022-10-31T18:19:01.961Z,10.40
2022-10-31T18:21:32.467Z,10.40
2022-10-31T18:24:03.343Z,10.40
2022-10-31T18:26:35.799Z,10.40
2022-10-31T18:29:06.090Z,10.30
2022-10-31T18:31:35.924Z,10.30
2022-10-31T18:34:05.768Z,10.20
2022-10-31T18:36:35.723Z,10.20
2022-10-31T18:39:06.704Z,10.10
2022-10-31T18:41:39.145Z,10.10
2022-10-31T18:44:10.024Z,10.00
2022-10-31T18:46:40.468Z,9.90
2022-10-31T18:49:10.291Z,9.80
2022-10-31T18:51:40.169Z,9.80
2022-10-31T18:54:10.984Z,9.80
2022-10-31T18:56:43.515Z,9.80
2022-10-31T18:59:14.664Z,9.80
2022-10-31T19:01:44.622Z,9.80
2022-10-31T19:04:14.674Z,9.80
2022-10-31T19:06:44.563Z,9.80
2022-10-31T19:09:14.455Z,9.80
2022-10-31T19:11:46.906Z,9.80
2022-10-31T19:14:16.910Z,9.80
2022-10-31T19:16:46.815Z,9.80
2022-10-31T19:19:16.646Z,9.70
2022-10-31T19:21:46.481Z,9.70
2022-10-31T19:24:16.529Z,9.70
2022-10-31T19:26:49.135Z,9.60
2022-10-31T19:29:19.327Z,9.60
2022-10-31T19:31:49.161Z,9.60
2022-10-31T19:34:19.040Z,9.60
2022-10-31T19:36:48.880Z,9.60
2022-10-31T19:39:18.721Z,9.60
2022-10-31T19:41:51.178Z,9.50
2022-10-31T19:44:21.031Z,9.50
2022-10-31T19:46:54.357Z,9.50
2022-10-31T19:49:24.329Z,9.40
2022-10-31T19:51:54.442Z,9.40
2022-10-31T19:54:24.350Z,9.40
2022-10-31T19:56:56.874Z,9.40
2022-10-31T19:59:26.766Z,9.40
2022-10-31T20:01:56.740Z,9.30
2022-10-31T20:04:26.805Z,9.30
2022-10-31T20:06:56.647Z,9.30
2022-10-31T20:09:26.503Z,9.30
2022-10-31T20:11:58.920Z,9.30
2022-10-31T20:14:28.793Z,9.30
2022-10-31T20:16:58.639Z,9.20
2022-10-31T20:19:28.481Z,9.20
2022-10-31T20:21:58.493Z,9.10
2022-10-31T20:24:28.384Z,9.10
2022-10-31T20:27:00.812Z,9.10
2022-10-31T20:29:30.674Z,9.10
2022-10-31T20:32:00.569Z,9.10
2022-10-31T20:34:30.485Z,9.10
2022-10-31T20:37:00.324Z,9.10
2022-10-31T20:39:30.158Z,9.10
2022-10-31T20:42:02.569Z,9.10
2022-10-31T20:44:32.424Z,9.10
2022-10-31T20:47:02.277Z,9.10
2022-10-31T20:49:33.204Z,9.10
2022-10-31T20:52:03.093Z,9.10
2022-10-31T20:54:32.956Z,9.10
2022-10-31T20:57:05.394Z,9.20
2022-10-31T20:59:35.325Z,9.10
2022-10-31T21:02:05.365Z,9.20
2022-10-31T21:04:35.300Z,9.30
2022-10-31T21:07:05.154Z,9.30
2022-10-31T21:09:34.997Z,9.30
2022-10-31T21:12:07.520Z,9.30
2022-10-31T21:14:37.936Z,9.30
2022-10-31T21:17:08.112Z,9.20
2022-10-31T21:19:37.976Z,9.20
2022-10-31T21:22:07.817Z,9.20
2022-10-31T21:24:37.741Z,9.30
2022-10-31T21:27:12.584Z,9.30
2022-10-31T21:29:42.565Z,9.40
2022-10-31T21:32:12.428Z,9.40
2022-10-31T21:34:42.256Z,9.50
2022-10-31T21:37:12.089Z,9.50
2022-10-31T21:39:45.618Z,9.60
2022-10-31T21:42:21.728Z,9.60
2022-10-31T21:44:51.816Z,9.60
2022-10-31T21:47:21.644Z,9.80
2022-10-31T21:49:51.537Z,9.70
2022-10-31T21:52:21.906Z,9.70
2022-10-31T21:54:49.166Z,9.60
2022-10-31T21:59:52.448Z,9.70
2022-10-31T22:02:22.331Z,9.70
2022-10-31T22:04:52.666Z,9.80
2022-10-31T22:07:22.517Z,9.90
2022-10-31T22:09:52.363Z,9.90
2022-10-31T22:12:24.873Z,10.00
2022-10-31T22:14:54.718Z,10.00
2022-10-31T22:17:24.552Z,10.00
2022-10-31T22:19:54.563Z,10.00
2022-10-31T22:22:24.412Z,10.00
2022-10-31T22:24:54.275Z,10.00
2022-10-31T22:27:26.716Z,10.00
2022-10-31T22:29:56.917Z,10.00
2022-10-31T22:32:27.371Z,9.90
2022-10-31T22:34:57.262Z,9.90
2022-10-31T22:37:27.149Z,9.90
2022-10-31T22:39:56.987Z,9.90
2022-10-31T22:42:29.469Z,9.90
2022-10-31T22:45:01.754Z,9.80
2022-10-31T22:47:31.713Z,9.70
2022-10-31T22:50:01.576Z,9.50
2022-10-31T22:52:31.459Z,9.30
2022-10-31T22:55:01.281Z,9.20
2022-10-31T22:57:33.730Z,9.00
2022-10-31T23:00:03.611Z,8.90
2022-10-31T23:02:33.483Z,8.80
2022-10-31T23:05:03.429Z,8.70
2022-10-31T23:07:33.323Z,8.50
2022-10-31T23:10:03.170Z,8.50
2022-10-31T23:12:48.053Z,8.40
2022-10-31T23:15:18.105Z,8.30
2022-10-31T23:17:47.975Z,8.20
2022-10-31T23:20:17.837Z,8.10
2022-10-31T23:22:47.696Z,8.00
2022-10-31T23:25:29.947Z,8.00
2022-10-31T23:28:02.364Z,8.00
2022-10-31T23:30:32.227Z,7.90
2022-10-31T23:33:02.375Z,7.90
2022-10-31T23:35:32.457Z,7.90
2022-10-31T23:38:02.446Z,7.80
2022-10-31T23:40:32.492Z,7.80
2022-10-31T23:43:04.940Z,7.70
2022-10-31T23:45:34.825Z,7.70
2022-10-31T23:48:04.758Z,7.60
2022-10-31T23:50:34.636Z,7.60
2022-10-31T23:53:04.472Z,7.60
2022-10-31T23:55:34.948Z,7.50
2022-10-31T23:58:07.383Z,7.50
